Portada
METAR-TAF:

METAR-TAF

Aeropuertos :

Aeropuerto Internacional de Harbin

Harbin, China

latitud: 45-45N, longitud: 126-46E, altitud: 143 m

Observación

El informe se hizo hace 42 minutos, a las 15:00 UTC
Viento 4 kt del sur
Temperatura -14°C
Humedad 66%
Presión 1026 hPa
Visibilidad 10 km o más
sin nubes por debajo de 1500 m y sin presencia de cumulonimbus.

METAR: ZYHB 201500Z 17002MPS CAVOK M14/M19 Q1026 NOSIG

Hora: 23:42 (15:42 UTC)

Pronóstico

El informe se hizo hace 6 horas y 39 minutos, a las 09:03 UTC
Pronóstico válido del 20 a las 12 UTC al 21 a las 12 UTC
Viento 8 kt del oeste-suroeste
Visibilidad: 6000 m
Escasas nubes a una altura de 3000 ft
Temporalmente
del 20 a las 20 UTC al 20 a las 24 UTC
Visibilidad: 2500 m
humo

TAF: ZYHB 200903Z 2012/2112 24004MPS 6000 FEW030 TXM03/06Z TNM14/21Z TEMPO 2020/2024 2500 FU

Observaciones y pronósticos meteorológicos de más de 4000 aeropuertos (mensajes METAR y TAF).

Los puntos amarillos y rojos representan las estaciones disponibles.

Ponga el ratón en el punto deseado para ver el nombre de la estación.

Haga clic para ver las observaciones y los pronósticos meteorológicos.

Para cambiar el mapa : haga clic en los botones verdes con una cruz de color negro para hacer un zoom, en el botón verde con un guión para alejar o en las flechas verdes para mapas adyacentes.


METAR-TAF: